createdAt,value
2022-12-14T00:01:54.440Z,75.32
2022-12-14T00:04:21.467Z,75.53
2022-12-14T00:06:48.764Z,75.98
2022-12-14T00:09:16.068Z,75.43
2022-12-14T00:11:45.274Z,75.47
2022-12-14T00:14:12.279Z,75.72
2022-12-14T00:16:39.477Z,75.67
2022-12-14T00:19:06.609Z,75.07
2022-12-14T00:21:33.933Z,74.90
2022-12-14T00:24:01.069Z,74.75
2022-12-14T00:26:32.723Z,74.70
2022-12-14T00:29:01.996Z,74.68
2022-12-14T00:31:31.351Z,75.07
2022-12-14T00:36:46.889Z,73.50
2022-12-14T00:39:13.897Z,73.23
2022-12-14T00:41:40.980Z,73.25
2022-12-14T00:44:08.076Z,72.72
2022-12-14T00:46:35.152Z,73.20
2022-12-14T00:49:02.187Z,73.00
2022-12-14T00:51:31.680Z,72.95
2022-12-14T00:53:58.692Z,72.92
2022-12-14T00:56:28.206Z,73.72
2022-12-14T00:58:55.274Z,73.57
2022-12-14T01:01:25.991Z,73.70
2022-12-14T01:04:13.202Z,73.97
2022-12-14T01:06:40.306Z,72.99
2022-12-14T01:09:07.437Z,73.22
2022-12-14T01:11:34.528Z,72.70
2022-12-14T01:14:03.017Z,72.81
2022-12-14T01:16:30.278Z,72.32
2022-12-14T01:19:00.777Z,72.52
2022-12-14T01:21:28.392Z,73.34
2022-12-14T01:23:59.542Z,73.72
2022-12-14T01:26:29.003Z,73.35
2022-12-14T01:28:58.683Z,73.00
2022-12-14T01:31:32.810Z,72.84
2022-12-14T01:34:00.437Z,72.92
2022-12-14T01:36:33.804Z,73.00
2022-12-14T01:39:13.749Z,72.55
2022-12-14T01:41:47.487Z,72.41
2022-12-14T01:44:17.537Z,72.41
2022-12-14T01:47:12.382Z,73.26
2022-12-14T01:50:16.685Z,72.58
2022-12-14T01:52:47.915Z,72.53
2022-12-14T01:55:48.971Z,72.21
2022-12-14T01:58:20.182Z,72.31
2022-12-14T02:00:47.456Z,72.58
2022-12-14T02:03:41.502Z,72.63
2022-12-14T02:06:40.212Z,72.42
2022-12-14T02:09:15.356Z,72.40
2022-12-14T02:12:09.124Z,72.59
2022-12-14T02:14:36.437Z,74.03
2022-12-14T02:17:04.687Z,72.57
2022-12-14T02:19:31.738Z,72.42
2022-12-14T02:22:33.749Z,72.33
2022-12-14T02:25:31.779Z,72.51
2022-12-14T02:28:10.989Z,72.13
2022-12-14T02:30:41.488Z,72.75
2022-12-14T02:33:35.839Z,72.48
2022-12-14T02:36:13.540Z,72.01
2022-12-14T02:39:15.859Z,71.63
2022-12-14T02:41:55.229Z,72.01
2022-12-14T02:44:55.470Z,71.31
2022-12-14T02:47:37.500Z,71.49
2022-12-14T02:50:04.645Z,71.28
2022-12-14T02:52:54.108Z,71.29
2022-12-14T02:55:37.433Z,71.47
2022-12-14T02:58:27.128Z,71.49
2022-12-14T03:00:56.193Z,71.32
2022-12-14T03:03:24.159Z,71.19
2022-12-14T03:06:04.082Z,70.96
2022-12-14T03:08:35.947Z,71.15
2022-12-14T03:11:07.013Z,71.11
2022-12-14T03:14:01.114Z,70.99
2022-12-14T03:16:36.310Z,71.00
2022-12-14T03:19:18.664Z,70.61
2022-12-14T03:21:52.833Z,70.28
2022-12-14T03:24:39.342Z,69.93
2022-12-14T03:27:33.777Z,70.30
2022-12-14T03:30:10.796Z,70.45
2022-12-14T03:33:08.154Z,70.45
2022-12-14T03:35:46.200Z,70.50
2022-12-14T03:41:36.382Z,71.04
2022-12-14T03:44:23.793Z,72.29
2022-12-14T03:46:58.506Z,71.39
2022-12-14T03:50:00.821Z,77.34
2022-12-14T03:52:36.332Z,77.54
2022-12-14T03:55:32.773Z,77.02
2022-12-14T03:58:43.138Z,76.83
2022-12-14T04:01:35.391Z,76.85
2022-12-14T04:04:29.142Z,77.69
2022-12-14T04:07:44.064Z,78.08
2022-12-14T04:10:43.568Z,79.65
2022-12-14T04:13:40.049Z,78.51
2022-12-14T04:16:33.430Z,79.52
2022-12-14T04:19:06.905Z,79.34
2022-12-14T04:22:18.246Z,79.17
2022-12-14T04:25:13.730Z,78.96
2022-12-14T04:28:34.555Z,79.70
2022-12-14T04:31:08.297Z,79.87
2022-12-14T04:33:47.000Z,78.94
2022-12-14T04:36:32.822Z,78.73
2022-12-14T04:39:08.197Z,78.91
2022-12-14T04:41:41.713Z,78.56
2022-12-14T04:44:30.695Z,79.55
2022-12-14T04:47:01.499Z,79.66
2022-12-14T04:49:41.703Z,80.15
2022-12-14T04:52:34.705Z,79.86
2022-12-14T04:55:08.602Z,80.62
2022-12-14T04:58:26.153Z,82.53
2022-12-14T05:01:33.882Z,82.64
2022-12-14T05:04:10.985Z,83.69
2022-12-14T05:07:04.116Z,84.04
2022-12-14T05:10:03.710Z,84.12
2022-12-14T05:12:52.572Z,85.28
2022-12-14T05:15:30.726Z,84.61
2022-12-14T05:18:05.553Z,87.18
2022-12-14T05:20:32.927Z,86.17
2022-12-14T05:23:00.038Z,85.91
2022-12-14T05:25:27.172Z,83.89
2022-12-14T05:27:54.233Z,83.24
2022-12-14T05:30:21.386Z,83.84
2022-12-14T05:32:48.593Z,83.67
2022-12-14T05:35:18.623Z,83.35
2022-12-14T05:37:45.781Z,83.24
2022-12-14T05:40:17.288Z,84.49
2022-12-14T05:42:48.602Z,85.27
2022-12-14T05:45:18.063Z,86.17
2022-12-14T05:47:45.296Z,87.09
2022-12-14T05:50:12.410Z,85.98
2022-12-14T05:52:40.030Z,85.48
2022-12-14T05:55:07.840Z,84.39
2022-12-14T05:57:34.847Z,84.19
2022-12-14T06:00:02.445Z,85.20
2022-12-14T06:02:29.553Z,84.75
2022-12-14T06:04:56.929Z,85.35
2022-12-14T06:07:27.702Z,86.53
2022-12-14T06:10:01.674Z,86.33
2022-12-14T06:12:28.754Z,84.96
2022-12-14T06:14:58.362Z,85.22
2022-12-14T06:17:25.425Z,85.03
2022-12-14T06:19:52.610Z,84.08
2022-12-14T06:22:21.453Z,83.38
2022-12-14T06:24:48.517Z,83.25
2022-12-14T06:27:15.618Z,83.30
2022-12-14T06:29:42.772Z,83.23
2022-12-14T06:32:09.754Z,82.02
2022-12-14T06:34:40.655Z,82.14
2022-12-14T06:37:09.581Z,81.84
2022-12-14T06:39:36.706Z,81.71
2022-12-14T06:42:06.534Z,80.77
2022-12-14T06:44:33.532Z,81.75
2022-12-14T06:47:00.756Z,82.36
2022-12-14T06:49:28.020Z,81.56
2022-12-14T06:51:55.091Z,81.14
2022-12-14T06:54:24.669Z,82.42
2022-12-14T06:56:51.885Z,81.96
2022-12-14T06:59:19.095Z,82.46
2022-12-14T07:01:46.636Z,81.15
2022-12-14T07:04:18.818Z,81.77
2022-12-14T07:06:45.865Z,80.75
2022-12-14T07:09:14.342Z,81.01
2022-12-14T07:11:42.003Z,82.22
2022-12-14T07:14:16.211Z,81.68
2022-12-14T07:16:47.746Z,81.12
2022-12-14T07:19:15.532Z,80.29
2022-12-14T07:21:42.611Z,81.19
2022-12-14T07:24:12.124Z,80.14
2022-12-14T07:26:39.219Z,80.34
2022-12-14T07:29:06.730Z,79.20
2022-12-14T07:31:33.892Z,79.23
2022-12-14T07:34:01.005Z,79.37
2022-12-14T07:36:30.314Z,78.97
2022-12-14T07:38:59.996Z,79.78
2022-12-14T07:41:31.255Z,79.03
2022-12-14T07:44:03.973Z,79.60
2022-12-14T07:46:32.534Z,78.75
2022-12-14T07:49:04.240Z,77.93
2022-12-14T07:51:44.328Z,77.84
2022-12-14T07:54:13.440Z,79.92
2022-12-14T07:56:43.748Z,78.91
2022-12-14T07:59:17.239Z,79.03
2022-12-14T08:01:44.880Z,79.65
2022-12-14T08:04:16.917Z,77.87
2022-12-14T08:06:44.595Z,78.40
2022-12-14T08:09:12.291Z,79.29
2022-12-14T08:11:40.281Z,78.24
2022-12-14T08:14:14.083Z,80.47
2022-12-14T08:16:41.136Z,80.73
2022-12-14T08:19:08.179Z,79.86
2022-12-14T08:21:35.502Z,80.50
2022-12-14T08:24:02.601Z,80.37
2022-12-14T08:26:35.148Z,80.48
2022-12-14T08:29:04.456Z,80.47
2022-12-14T08:31:33.033Z,78.92
2022-12-14T08:34:02.672Z,78.60
2022-12-14T08:36:34.077Z,79.49
2022-12-14T08:39:04.744Z,80.85
2022-12-14T08:41:32.519Z,79.37
2022-12-14T08:44:01.590Z,78.35
2022-12-14T08:46:34.850Z,80.80
2022-12-14T08:49:02.045Z,80.35
2022-12-14T08:51:29.645Z,79.77
2022-12-14T08:53:58.360Z,77.88
2022-12-14T08:56:27.972Z,77.20
2022-12-14T08:58:56.849Z,77.08
2022-12-14T09:01:33.009Z,77.68
2022-12-14T09:04:08.205Z,77.02
2022-12-14T09:06:38.517Z,74.93
2022-12-14T09:09:13.590Z,73.45
2022-12-14T09:11:45.847Z,73.94
2022-12-14T09:14:15.473Z,77.01
2022-12-14T09:16:42.742Z,73.64
2022-12-14T09:19:17.458Z,74.75
2022-12-14T09:21:44.531Z,73.12
2022-12-14T09:24:12.046Z,71.22
2022-12-14T09:26:39.183Z,71.55
2022-12-14T09:29:06.269Z,74.34
2022-12-14T09:31:35.573Z,70.42
2022-12-14T09:34:04.758Z,72.69
2022-12-14T09:36:34.225Z,70.97
2022-12-14T09:39:01.843Z,71.92
2022-12-14T09:41:43.637Z,70.01
2022-12-14T09:44:18.140Z,70.51
2022-12-14T09:47:13.847Z,70.99
2022-12-14T09:49:55.394Z,66.67
2022-12-14T09:52:51.213Z,64.36
2022-12-14T09:55:37.260Z,62.24
2022-12-14T09:58:24.346Z,66.23
2022-12-14T10:01:24.544Z,63.66
2022-12-14T10:04:27.221Z,62.70
2022-12-14T10:07:02.666Z,62.26
2022-12-14T10:10:01.195Z,58.80
2022-12-14T10:13:29.190Z,56.77
2022-12-14T10:16:22.767Z,55.88
2022-12-14T10:19:14.819Z,55.61
2022-12-14T10:22:09.193Z,58.42
2022-12-14T10:24:49.197Z,57.44
2022-12-14T10:27:47.646Z,56.83
2022-12-14T10:30:23.583Z,56.12
2022-12-14T10:33:13.569Z,55.74
2022-12-14T10:35:54.211Z,55.32
2022-12-14T10:39:01.963Z,58.74
2022-12-14T10:41:55.191Z,56.33
2022-12-14T10:44:34.021Z,57.35
2022-12-14T10:47:52.795Z,51.65
2022-12-14T10:51:02.086Z,53.87
2022-12-14T10:53:44.023Z,54.33
2022-12-14T10:56:21.114Z,50.34
2022-12-14T10:59:16.558Z,54.04
2022-12-14T11:01:50.093Z,51.65
2022-12-14T11:04:48.630Z,55.84
2022-12-14T11:07:19.427Z,55.53
2022-12-14T11:09:47.169Z,56.90
2022-12-14T11:12:14.175Z,53.32
2022-12-14T11:15:23.391Z,55.85
2022-12-14T11:18:20.211Z,55.67
2022-12-14T11:21:06.283Z,56.38
2022-12-14T11:23:45.306Z,56.58
2022-12-14T11:26:43.181Z,56.03
2022-12-14T11:29:35.309Z,58.08
2022-12-14T11:32:03.559Z,59.85
2022-12-14T11:34:34.752Z,61.04
2022-12-14T11:37:21.549Z,62.95
2022-12-14T11:39:59.044Z,65.95
2022-12-14T11:42:26.843Z,65.77
2022-12-14T11:44:55.212Z,66.37
2022-12-14T11:47:26.666Z,69.21
2022-12-14T11:50:00.501Z,69.80
2022-12-14T11:52:45.033Z,67.49
2022-12-14T11:55:26.820Z,69.48
2022-12-14T11:58:03.213Z,68.99
2022-12-14T12:00:51.070Z,69.50
2022-12-14T12:03:51.693Z,68.82
2022-12-14T12:06:25.754Z,69.09
2022-12-14T12:09:02.628Z,70.14
2022-12-14T12:11:35.133Z,70.17
2022-12-14T12:14:39.081Z,70.71
2022-12-14T12:17:42.532Z,69.54
2022-12-14T12:20:28.295Z,70.48
2022-12-14T12:23:17.890Z,70.47
2022-12-14T12:25:48.299Z,69.97
2022-12-14T12:28:32.229Z,69.89
2022-12-14T12:31:16.956Z,69.78
2022-12-14T12:33:59.509Z,70.14
2022-12-14T12:36:27.145Z,69.45
2022-12-14T12:39:19.162Z,69.95
2022-12-14T12:42:19.811Z,70.63
2022-12-14T12:45:03.264Z,69.91
2022-12-14T12:47:47.760Z,69.88
2022-12-14T12:50:20.318Z,68.76
2022-12-14T12:53:18.092Z,69.50
2022-12-14T12:55:53.708Z,70.42
2022-12-14T12:58:30.246Z,69.87
2022-12-14T13:01:07.598Z,70.49
2022-12-14T13:03:45.860Z,69.88
2022-12-14T13:06:42.566Z,71.07
2022-12-14T13:09:34.103Z,70.32
2022-12-14T13:12:25.721Z,70.89
2022-12-14T13:14:57.206Z,70.87
2022-12-14T13:18:02.616Z,71.26
2022-12-14T13:20:33.621Z,69.41
2022-12-14T13:23:36.034Z,71.86
2022-12-14T13:27:02.965Z,71.33
2022-12-14T13:30:00.417Z,71.83
2022-12-14T13:32:59.291Z,71.71
2022-12-14T13:36:09.883Z,72.19
2022-12-14T13:38:57.857Z,71.32
2022-12-14T13:42:11.578Z,73.05
2022-12-14T13:45:05.782Z,72.42
2022-12-14T13:47:44.795Z,72.38
2022-12-14T13:50:36.279Z,72.51
2022-12-14T13:53:13.281Z,70.76
2022-12-14T13:55:56.262Z,71.50
2022-12-14T13:58:24.306Z,71.55
2022-12-14T14:00:53.218Z,72.47
2022-12-14T14:03:45.075Z,72.54
2022-12-14T14:06:12.219Z,72.20
2022-12-14T14:08:44.682Z,72.47
2022-12-14T14:11:39.670Z,71.92
2022-12-14T14:14:34.436Z,71.95
2022-12-14T14:17:31.965Z,73.08
2022-12-14T14:20:00.047Z,74.10
2022-12-14T14:22:29.841Z,73.60
2022-12-14T14:25:37.802Z,73.48
2022-12-14T14:28:05.170Z,73.67
2022-12-14T14:30:48.739Z,72.99
2022-12-14T14:33:55.350Z,73.21
2022-12-14T14:36:33.484Z,72.92
2022-12-14T14:39:10.687Z,73.41
2022-12-14T14:41:52.779Z,74.15
2022-12-14T14:44:58.286Z,74.39
2022-12-14T14:47:31.148Z,73.69
2022-12-14T14:50:15.964Z,73.19
2022-12-14T14:52:42.852Z,73.64
2022-12-14T14:58:25.667Z,73.22
2022-12-14T15:01:03.954Z,74.94
2022-12-14T15:04:00.500Z,75.27
2022-12-14T15:06:40.496Z,75.12
2022-12-14T15:09:13.329Z,75.76
2022-12-14T15:11:50.581Z,75.29
2022-12-14T15:14:35.011Z,75.93
2022-12-14T15:17:13.312Z,76.62
2022-12-14T15:19:48.818Z,76.30
2022-12-14T15:22:41.735Z,76.69
2022-12-14T15:25:28.322Z,76.17
2022-12-14T15:27:59.938Z,77.10
2022-12-14T15:30:31.518Z,76.81
2022-12-14T15:33:07.082Z,76.17
2022-12-14T15:35:40.180Z,76.22
2022-12-14T15:38:31.535Z,76.51
2022-12-14T15:41:15.786Z,76.72
2022-12-14T15:43:50.250Z,77.00
2022-12-14T15:46:26.913Z,76.98
2022-12-14T15:49:03.933Z,77.57
2022-12-14T15:51:44.356Z,76.91
2022-12-14T15:54:19.956Z,78.37
2022-12-14T15:56:58.881Z,77.71
2022-12-14T15:59:34.530Z,77.80
2022-12-14T16:02:58.592Z,78.43
2022-12-14T16:05:26.304Z,78.29
2022-12-14T16:07:57.397Z,77.69
2022-12-14T16:10:33.380Z,77.26
2022-12-14T16:13:22.402Z,78.26
2022-12-14T16:15:52.785Z,78.63
2022-12-14T16:18:22.939Z,78.76
2022-12-14T16:21:19.676Z,78.94
2022-12-14T16:23:50.230Z,78.22
2022-12-14T16:26:43.970Z,78.99
2022-12-14T16:29:29.852Z,78.83
2022-12-14T16:32:09.503Z,78.62
2022-12-14T16:34:41.811Z,78.26
2022-12-14T16:37:34.088Z,79.04
2022-12-14T16:40:01.645Z,78.80
2022-12-14T16:42:35.059Z,79.02
2022-12-14T16:45:02.311Z,80.82
2022-12-14T16:47:35.297Z,80.14
2022-12-14T16:50:08.269Z,78.97
2022-12-14T16:52:36.922Z,80.04
2022-12-14T16:55:20.587Z,80.43
2022-12-14T16:58:00.964Z,80.05
2022-12-14T17:00:35.029Z,80.77
2022-12-14T17:03:19.848Z,78.67
2022-12-14T17:05:57.493Z,78.56
2022-12-14T17:08:25.045Z,78.29
2022-12-14T17:10:55.078Z,78.60
2022-12-14T17:13:24.627Z,78.68
2022-12-14T17:16:02.299Z,78.01
2022-12-14T17:18:39.412Z,78.51
2022-12-14T17:21:09.296Z,78.77
2022-12-14T17:23:40.844Z,78.61
2022-12-14T17:26:22.659Z,78.03
2022-12-14T17:28:51.360Z,78.07
2022-12-14T17:31:26.907Z,77.64
2022-12-14T17:33:57.595Z,79.19
2022-12-14T17:36:27.543Z,78.24
2022-12-14T17:38:56.631Z,78.22
2022-12-14T17:41:30.492Z,79.02
2022-12-14T17:43:59.334Z,80.45
2022-12-14T17:46:26.787Z,79.59
2022-12-14T17:49:02.897Z,79.95
2022-12-14T17:51:41.820Z,80.43
2022-12-14T17:54:25.919Z,80.60
2022-12-14T17:56:56.255Z,80.34
2022-12-14T17:59:23.368Z,81.63
2022-12-14T18:01:50.731Z,81.83
2022-12-14T18:04:20.376Z,81.65
2022-12-14T18:06:47.382Z,79.86
2022-12-14T18:09:18.632Z,81.05
2022-12-14T18:12:21.032Z,81.31
2022-12-14T18:14:32.837Z,80.42
2022-12-14T18:17:06.604Z,80.71
2022-12-14T18:19:37.097Z,79.70
2022-12-14T18:22:09.304Z,80.46
2022-12-14T18:24:38.870Z,80.63
2022-12-14T18:27:08.106Z,80.20
2022-12-14T18:29:35.613Z,79.98
2022-12-14T18:32:03.567Z,79.48
2022-12-14T18:34:30.633Z,79.49
2022-12-14T18:36:58.515Z,78.56
2022-12-14T18:39:25.641Z,78.25
2022-12-14T18:41:52.641Z,79.02
2022-12-14T18:44:19.713Z,78.33
2022-12-14T18:46:49.505Z,79.20
2022-12-14T18:49:18.920Z,79.93
2022-12-14T18:51:46.005Z,79.99
2022-12-14T18:54:13.264Z,78.84
2022-12-14T18:56:42.694Z,78.99
2022-12-14T18:59:09.991Z,78.24
2022-12-14T19:01:37.237Z,79.27
2022-12-14T19:04:05.785Z,79.55
2022-12-14T19:06:48.453Z,79.67
2022-12-14T19:09:15.793Z,79.27
2022-12-14T19:11:46.004Z,79.48
2022-12-14T19:14:13.177Z,79.84
2022-12-14T19:16:42.765Z,78.72
2022-12-14T19:19:10.220Z,79.54
2022-12-14T19:21:37.365Z,79.31
2022-12-14T19:24:05.253Z,79.69
2022-12-14T19:26:32.411Z,79.54
2022-12-14T19:28:59.607Z,80.67
2022-12-14T19:31:27.305Z,79.28
2022-12-14T19:33:54.955Z,78.85
2022-12-14T19:36:22.206Z,78.16
2022-12-14T19:38:49.745Z,80.16
2022-12-14T19:41:20.669Z,79.76
2022-12-14T19:43:48.478Z,79.09
2022-12-14T19:46:17.736Z,79.93
2022-12-14T19:48:45.209Z,80.08
2022-12-14T19:51:13.416Z,79.17
2022-12-14T19:53:43.001Z,79.82
2022-12-14T19:56:14.820Z,78.41
2022-12-14T19:58:42.065Z,79.85
2022-12-14T20:01:16.579Z,79.60
2022-12-14T20:03:43.957Z,79.08
2022-12-14T20:06:11.133Z,79.50
2022-12-14T20:08:40.760Z,78.77
2022-12-14T20:11:10.489Z,78.42
2022-12-14T20:13:38.359Z,79.36
2022-12-14T20:16:06.105Z,79.16
2022-12-14T20:18:33.717Z,80.00
2022-12-14T20:21:09.850Z,80.41
2022-12-14T20:23:38.699Z,79.72
2022-12-14T20:26:11.135Z,79.67
2022-12-14T20:28:39.361Z,79.94
2022-12-14T20:31:09.895Z,79.92
2022-12-14T20:33:38.751Z,79.83
2022-12-14T20:36:07.193Z,79.18
2022-12-14T20:38:34.398Z,79.03
2022-12-14T20:41:08.336Z,79.58
2022-12-14T20:43:37.552Z,79.36
2022-12-14T20:46:06.012Z,80.06
2022-12-14T20:48:33.759Z,79.08
2022-12-14T20:51:03.846Z,77.89
2022-12-14T20:53:31.377Z,77.76
2022-12-14T20:56:04.931Z,77.79
2022-12-14T20:58:32.281Z,78.56
2022-12-14T21:01:09.558Z,77.88
2022-12-14T21:03:37.002Z,77.68
2022-12-14T21:06:04.303Z,77.99
2022-12-14T21:08:31.826Z,78.23
2022-12-14T21:11:23.242Z,78.30
2022-12-14T21:13:50.273Z,78.85
2022-12-14T21:16:17.507Z,78.27
2022-12-14T21:18:44.665Z,77.60
2022-12-14T21:21:11.885Z,76.98
2022-12-14T21:23:41.440Z,77.22
2022-12-14T21:26:08.591Z,77.04
2022-12-14T21:28:35.681Z,76.78
2022-12-14T21:31:08.529Z,78.11
2022-12-14T21:33:35.884Z,77.73
2022-12-14T21:36:10.138Z,78.03
2022-12-14T21:38:40.207Z,78.77
2022-12-14T21:41:26.467Z,79.74
2022-12-14T21:43:56.076Z,79.34
2022-12-14T21:46:27.874Z,79.18
2022-12-14T21:48:58.624Z,79.72
2022-12-14T21:51:25.700Z,80.20
2022-12-14T21:54:01.434Z,80.17
2022-12-14T21:56:56.143Z,79.75
2022-12-14T21:59:29.050Z,80.05
2022-12-14T22:01:59.102Z,81.26
2022-12-14T22:04:27.691Z,80.23
2022-12-14T22:06:55.290Z,79.77
2022-12-14T22:09:25.348Z,79.92
2022-12-14T22:11:53.077Z,79.64
2022-12-14T22:14:24.411Z,79.63
2022-12-14T22:16:52.960Z,79.31
2022-12-14T22:19:23.302Z,80.32
2022-12-14T22:21:51.994Z,78.94
2022-12-14T22:24:21.362Z,79.09
2022-12-14T22:26:50.978Z,79.28
2022-12-14T22:29:19.798Z,78.19
2022-12-14T22:31:47.026Z,79.71
2022-12-14T22:34:23.481Z,79.30
2022-12-14T22:36:52.652Z,79.31
2022-12-14T22:39:22.216Z,78.59
2022-12-14T22:41:49.701Z,78.40
2022-12-14T22:44:19.362Z,77.91
2022-12-14T22:46:46.422Z,77.51
2022-12-14T22:49:19.149Z,76.69
2022-12-14T22:51:46.848Z,76.33
2022-12-14T22:54:26.990Z,75.75
2022-12-14T22:57:07.548Z,75.35
2022-12-14T22:59:36.384Z,75.07
2022-12-14T23:02:04.150Z,74.85
2022-12-14T23:04:31.865Z,74.04
2022-12-14T23:06:58.954Z,73.89
2022-12-14T23:09:44.864Z,73.59
2022-12-14T23:12:30.788Z,74.01
2022-12-14T23:15:16.614Z,74.40
2022-12-14T23:18:02.445Z,73.16
2022-12-14T23:20:48.571Z,72.18
2022-12-14T23:23:34.323Z,73.29
2022-12-14T23:26:22.843Z,71.76
2022-12-14T23:29:08.871Z,70.96
2022-12-14T23:31:54.650Z,70.75
2022-12-14T23:34:40.432Z,70.68
2022-12-14T23:37:26.305Z,70.22
2022-12-14T23:40:14.175Z,70.70
2022-12-14T23:43:01.358Z,70.41
2022-12-14T23:45:49.858Z,70.47
2022-12-14T23:48:35.738Z,69.96
2022-12-14T23:51:21.558Z,70.33
2022-12-14T23:54:07.723Z,70.61
2022-12-14T23:56:53.790Z,70.42
2022-12-14T23:59:39.610Z,69.97
